sensor_id;sensor_type;location;lat;lon;timestamp;temperature;humidity
45761;DHT22;31471;51.040;14.414;2022-08-19T00:01:19;21.40;99.90
45761;DHT22;31471;51.040;14.414;2022-08-19T00:03:45;21.40;99.90
45761;DHT22;31471;51.040;14.414;2022-08-19T00:06:10;21.40;99.90
45761;DHT22;31471;51.040;14.414;2022-08-19T00:08:36;21.40;99.90
45761;DHT22;31471;51.040;14.414;2022-08-19T00:11:02;21.40;99.90
45761;DHT22;31471;51.040;14.414;2022-08-19T00:13:27;21.40;99.90
45761;DHT22;31471;51.040;14.414;2022-08-19T00:15:55;21.40;99.90
45761;DHT22;31471;51.040;14.414;2022-08-19T00:18:20;21.40;99.90
45761;DHT22;31471;51.040;14.414;2022-08-19T00:20:46;21.30;99.90
45761;DHT22;31471;51.040;14.414;2022-08-19T00:23:11;21.40;99.90
45761;DHT22;31471;51.040;14.414;2022-08-19T00:25:37;21.30;99.90
45761;DHT22;31471;51.040;14.414;2022-08-19T00:28:03;21.30;99.90
45761;DHT22;31471;51.040;14.414;2022-08-19T00:30:29;21.20;99.90
45761;DHT22;31471;51.040;14.414;2022-08-19T00:32:55;21.10;99.90
45761;DHT22;31471;51.040;14.414;2022-08-19T00:35:22;21.10;99.90
45761;DHT22;31471;51.040;14.414;2022-08-19T00:37:48;21.10;99.90
45761;DHT22;31471;51.040;14.414;2022-08-19T00:40:15;21.10;99.90
45761;DHT22;31471;51.040;14.414;2022-08-19T00:42:43;21.10;99.90
45761;DHT22;31471;51.040;14.414;2022-08-19T00:45:20;21.10;99.90
45761;DHT22;31471;51.040;14.414;2022-08-19T00:47:46;21.00;99.90
45761;DHT22;31471;51.040;14.414;2022-08-19T00:50:15;21.00;99.90
45761;DHT22;31471;51.040;14.414;2022-08-19T00:52:44;20.90;99.90
45761;DHT22;31471;51.040;14.414;2022-08-19T00:55:24;20.90;99.90
45761;DHT22;31471;51.040;14.414;2022-08-19T00:57:55;20.90;99.90
45761;DHT22;31471;51.040;14.414;2022-08-19T01:00:23;20.90;99.90
45761;DHT22;31471;51.040;14.414;2022-08-19T01:02:49;20.80;99.90
45761;DHT22;31471;51.040;14.414;2022-08-19T01:05:16;20.90;99.90
45761;DHT22;31471;51.040;14.414;2022-08-19T01:07:43;20.80;99.90
45761;DHT22;31471;51.040;14.414;2022-08-19T01:10:15;20.70;99.90
45761;DHT22;31471;51.040;14.414;2022-08-19T01:12:41;20.70;99.90
45761;DHT22;31471;51.040;14.414;2022-08-19T01:15:08;20.70;99.90
45761;DHT22;31471;51.040;14.414;2022-08-19T01:17:36;20.50;99.90
45761;DHT22;31471;51.040;14.414;2022-08-19T01:20:04;20.40;99.90
45761;DHT22;31471;51.040;14.414;2022-08-19T01:22:32;20.40;99.90
45761;DHT22;31471;51.040;14.414;2022-08-19T01:25:02;20.40;99.90
45761;DHT22;31471;51.040;14.414;2022-08-19T01:27:41;20.30;99.90
45761;DHT22;31471;51.040;14.414;2022-08-19T01:30:08;20.40;99.90
45761;DHT22;31471;51.040;14.414;2022-08-19T01:32:34;20.30;99.90
45761;DHT22;31471;51.040;14.414;2022-08-19T01:35:00;20.20;99.90
45761;DHT22;31471;51.040;14.414;2022-08-19T01:37:28;20.30;99.90
45761;DHT22;31471;51.040;14.414;2022-08-19T01:39:54;20.30;99.90
45761;DHT22;31471;51.040;14.414;2022-08-19T01:42:19;20.20;99.90
45761;DHT22;31471;51.040;14.414;2022-08-19T01:44:45;20.20;99.90
45761;DHT22;31471;51.040;14.414;2022-08-19T01:47:11;20.20;99.90
45761;DHT22;31471;51.040;14.414;2022-08-19T01:49:36;20.10;99.90
45761;DHT22;31471;51.040;14.414;2022-08-19T01:52:02;20.10;99.90
45761;DHT22;31471;51.040;14.414;2022-08-19T01:54:28;20.10;99.90
45761;DHT22;31471;51.040;14.414;2022-08-19T01:56:58;20.00;99.90
45761;DHT22;31471;51.040;14.414;2022-08-19T01:59:25;20.00;99.90
45761;DHT22;31471;51.040;14.414;2022-08-19T02:01:50;20.00;99.90
45761;DHT22;31471;51.040;14.414;2022-08-19T02:04:16;20.00;99.90
45761;DHT22;31471;51.040;14.414;2022-08-19T02:06:41;20.00;99.90
45761;DHT22;31471;51.040;14.414;2022-08-19T02:09:08;20.00;99.90
45761;DHT22;31471;51.040;14.414;2022-08-19T02:11:35;20.00;99.90
45761;DHT22;31471;51.040;14.414;2022-08-19T02:14:04;20.00;99.90
45761;DHT22;31471;51.040;14.414;2022-08-19T02:16:31;19.90;99.90
45761;DHT22;31471;51.040;14.414;2022-08-19T02:18:56;19.90;99.90
45761;DHT22;31471;51.040;14.414;2022-08-19T02:21:23;19.90;99.90
45761;DHT22;31471;51.040;14.414;2022-08-19T02:23:50;20.00;99.90
45761;DHT22;31471;51.040;14.414;2022-08-19T02:26:16;20.00;99.90
45761;DHT22;31471;51.040;14.414;2022-08-19T02:28:42;20.00;99.90
45761;DHT22;31471;51.040;14.414;2022-08-19T02:31:13;20.00;99.90
45761;DHT22;31471;51.040;14.414;2022-08-19T02:33:43;20.10;99.90
45761;DHT22;31471;51.040;14.414;2022-08-19T02:36:11;20.10;99.90
45761;DHT22;31471;51.040;14.414;2022-08-19T02:38:37;20.10;99.90
45761;DHT22;31471;51.040;14.414;2022-08-19T02:41:04;20.10;99.90
45761;DHT22;31471;51.040;14.414;2022-08-19T02:43:32;20.20;99.90
45761;DHT22;31471;51.040;14.414;2022-08-19T02:45:57;20.20;99.90
45761;DHT22;31471;51.040;14.414;2022-08-19T02:48:24;20.20;99.90
45761;DHT22;31471;51.040;14.414;2022-08-19T02:50:52;20.20;99.90
45761;DHT22;31471;51.040;14.414;2022-08-19T02:53:22;20.30;99.90
45761;DHT22;31471;51.040;14.414;2022-08-19T02:55:49;20.30;99.90
45761;DHT22;31471;51.040;14.414;2022-08-19T02:58:15;20.30;99.90
45761;DHT22;31471;51.040;14.414;2022-08-19T03:00:48;20.40;99.90
45761;DHT22;31471;51.040;14.414;2022-08-19T03:03:15;20.40;99.90
45761;DHT22;31471;51.040;14.414;2022-08-19T03:05:41;20.40;99.90
45761;DHT22;31471;51.040;14.414;2022-08-19T03:08:06;20.40;99.90
45761;DHT22;31471;51.040;14.414;2022-08-19T03:10:33;20.40;99.90
45761;DHT22;31471;51.040;14.414;2022-08-19T03:12:58;20.40;99.90
45761;DHT22;31471;51.040;14.414;2022-08-19T03:15:24;20.50;99.90
45761;DHT22;31471;51.040;14.414;2022-08-19T03:17:49;20.40;99.90
45761;DHT22;31471;51.040;14.414;2022-08-19T03:20:15;20.50;99.90
45761;DHT22;31471;51.040;14.414;2022-08-19T03:22:40;20.50;99.90
45761;DHT22;31471;51.040;14.414;2022-08-19T03:25:06;20.50;99.90
45761;DHT22;31471;51.040;14.414;2022-08-19T03:27:32;20.50;99.90
45761;DHT22;31471;51.040;14.414;2022-08-19T03:29:57;20.50;99.90
45761;DHT22;31471;51.040;14.414;2022-08-19T03:32:23;20.40;99.90
45761;DHT22;31471;51.040;14.414;2022-08-19T03:34:49;20.50;99.90
45761;DHT22;31471;51.040;14.414;2022-08-19T03:37:16;20.50;99.90
45761;DHT22;31471;51.040;14.414;2022-08-19T03:39:41;20.50;99.90
45761;DHT22;31471;51.040;14.414;2022-08-19T03:42:08;20.50;99.90
45761;DHT22;31471;51.040;14.414;2022-08-19T03:44:34;20.50;99.90
45761;DHT22;31471;51.040;14.414;2022-08-19T03:47:03;20.50;99.90
45761;DHT22;31471;51.040;14.414;2022-08-19T03:49:31;20.50;99.90
45761;DHT22;31471;51.040;14.414;2022-08-19T03:51:58;20.60;99.90
45761;DHT22;31471;51.040;14.414;2022-08-19T03:54:26;20.50;99.90
45761;DHT22;31471;51.040;14.414;2022-08-19T03:56:54;20.50;99.90
45761;DHT22;31471;51.040;14.414;2022-08-19T03:59:29;20.40;99.90
45761;DHT22;31471;51.040;14.414;2022-08-19T04:01:57;20.50;99.90
45761;DHT22;31471;51.040;14.414;2022-08-19T04:04:23;20.50;99.90
45761;DHT22;31471;51.040;14.414;2022-08-19T04:06:48;20.50;99.90
45761;DHT22;31471;51.040;14.414;2022-08-19T04:09:15;20.50;99.90
45761;DHT22;31471;51.040;14.414;2022-08-19T04:11:43;20.50;99.90
45761;DHT22;31471;51.040;14.414;2022-08-19T04:14:11;20.50;99.90
45761;DHT22;31471;51.040;14.414;2022-08-19T04:16:37;20.50;99.90
45761;DHT22;31471;51.040;14.414;2022-08-19T04:19:03;20.40;99.90
45761;DHT22;31471;51.040;14.414;2022-08-19T04:21:30;20.50;99.90
45761;DHT22;31471;51.040;14.414;2022-08-19T04:23:56;20.50;99.90
45761;DHT22;31471;51.040;14.414;2022-08-19T04:26:28;20.60;99.90
45761;DHT22;31471;51.040;14.414;2022-08-19T04:28:57;20.60;99.90
45761;DHT22;31471;51.040;14.414;2022-08-19T04:31:26;20.60;99.90
45761;DHT22;31471;51.040;14.414;2022-08-19T04:33:59;20.60;99.90
45761;DHT22;31471;51.040;14.414;2022-08-19T04:36:29;20.60;99.90
45761;DHT22;31471;51.040;14.414;2022-08-19T04:38:57;20.60;99.90
45761;DHT22;31471;51.040;14.414;2022-08-19T04:41:23;20.60;99.90
45761;DHT22;31471;51.040;14.414;2022-08-19T04:44:07;20.60;99.90
45761;DHT22;31471;51.040;14.414;2022-08-19T04:46:33;20.60;99.90
45761;DHT22;31471;51.040;14.414;2022-08-19T04:48:59;20.60;99.90
45761;DHT22;31471;51.040;14.414;2022-08-19T04:51:25;20.50;99.90
45761;DHT22;31471;51.040;14.414;2022-08-19T04:53:51;20.60;99.90
45761;DHT22;31471;51.040;14.414;2022-08-19T04:56:18;20.60;99.90
45761;DHT22;31471;51.040;14.414;2022-08-19T04:58:46;20.50;99.90
45761;DHT22;31471;51.040;14.414;2022-08-19T05:01:14;20.60;99.90
45761;DHT22;31471;51.040;14.414;2022-08-19T05:03:42;20.60;99.90
45761;DHT22;31471;51.040;14.414;2022-08-19T05:06:10;20.50;99.90
45761;DHT22;31471;51.040;14.414;2022-08-19T05:08:39;20.50;99.90
45761;DHT22;31471;51.040;14.414;2022-08-19T05:11:11;20.60;99.90
45761;DHT22;31471;51.040;14.414;2022-08-19T05:13:38;20.60;99.90
45761;DHT22;31471;51.040;14.414;2022-08-19T05:16:03;20.60;99.90
45761;DHT22;31471;51.040;14.414;2022-08-19T05:18:29;20.60;99.90
45761;DHT22;31471;51.040;14.414;2022-08-19T05:21:16;20.60;99.90
45761;DHT22;31471;51.040;14.414;2022-08-19T05:24:00;20.60;99.90
45761;DHT22;31471;51.040;14.414;2022-08-19T05:26:26;20.60;99.90
45761;DHT22;31471;51.040;14.414;2022-08-19T05:28:52;20.50;99.90
45761;DHT22;31471;51.040;14.414;2022-08-19T05:31:18;20.60;99.90
45761;DHT22;31471;51.040;14.414;2022-08-19T05:33:44;20.50;99.90
45761;DHT22;31471;51.040;14.414;2022-08-19T05:36:10;20.50;99.90
45761;DHT22;31471;51.040;14.414;2022-08-19T05:38:36;20.60;99.90
45761;DHT22;31471;51.040;14.414;2022-08-19T05:41:11;20.60;99.90
45761;DHT22;31471;51.040;14.414;2022-08-19T05:43:37;20.60;99.90
45761;DHT22;31471;51.040;14.414;2022-08-19T05:46:06;20.60;99.90
45761;DHT22;31471;51.040;14.414;2022-08-19T05:48:33;20.50;99.90
45761;DHT22;31471;51.040;14.414;2022-08-19T05:51:04;20.50;99.90
45761;DHT22;31471;51.040;14.414;2022-08-19T05:53:32;20.60;99.90
45761;DHT22;31471;51.040;14.414;2022-08-19T05:55:57;20.60;99.90
45761;DHT22;31471;51.040;14.414;2022-08-19T05:58:23;20.60;99.90
45761;DHT22;31471;51.040;14.414;2022-08-19T06:00:50;20.60;99.90
45761;DHT22;31471;51.040;14.414;2022-08-19T06:03:15;20.50;99.90
45761;DHT22;31471;51.040;14.414;2022-08-19T06:05:41;20.60;99.90
45761;DHT22;31471;51.040;14.414;2022-08-19T06:08:07;20.60;99.90
45761;DHT22;31471;51.040;14.414;2022-08-19T06:10:32;20.60;99.90
45761;DHT22;31471;51.040;14.414;2022-08-19T06:12:58;20.60;99.90
45761;DHT22;31471;51.040;14.414;2022-08-19T06:15:24;20.60;99.90
45761;DHT22;31471;51.040;14.414;2022-08-19T06:17:51;20.60;99.90
45761;DHT22;31471;51.040;14.414;2022-08-19T06:20:17;20.60;99.90
45761;DHT22;31471;51.040;14.414;2022-08-19T06:22:46;20.60;99.90
45761;DHT22;31471;51.040;14.414;2022-08-19T06:25:13;20.60;99.90
45761;DHT22;31471;51.040;14.414;2022-08-19T06:27:40;20.60;99.90
45761;DHT22;31471;51.040;14.414;2022-08-19T06:30:06;20.60;99.90
45761;DHT22;31471;51.040;14.414;2022-08-19T06:32:32;20.60;99.90
45761;DHT22;31471;51.040;14.414;2022-08-19T06:34:58;20.60;99.90
45761;DHT22;31471;51.040;14.414;2022-08-19T06:37:24;20.60;99.90
45761;DHT22;31471;51.040;14.414;2022-08-19T06:39:49;20.50;99.90
45761;DHT22;31471;51.040;14.414;2022-08-19T06:42:15;20.60;99.90
45761;DHT22;31471;51.040;14.414;2022-08-19T06:44:45;20.60;99.90
45761;DHT22;31471;51.040;14.414;2022-08-19T06:47:14;20.60;99.90
45761;DHT22;31471;51.040;14.414;2022-08-19T06:49:40;20.60;99.90
45761;DHT22;31471;51.040;14.414;2022-08-19T06:52:06;20.70;99.90
45761;DHT22;31471;51.040;14.414;2022-08-19T06:54:32;20.70;99.90
45761;DHT22;31471;51.040;14.414;2022-08-19T06:56:58;20.80;99.90
45761;DHT22;31471;51.040;14.414;2022-08-19T06:59:27;20.80;99.90
45761;DHT22;31471;51.040;14.414;2022-08-19T07:01:59;20.80;99.90
45761;DHT22;31471;51.040;14.414;2022-08-19T07:04:27;20.70;99.90
45761;DHT22;31471;51.040;14.414;2022-08-19T07:07:02;20.70;99.90
45761;DHT22;31471;51.040;14.414;2022-08-19T07:09:29;20.60;99.90
45761;DHT22;31471;51.040;14.414;2022-08-19T07:11:55;20.70;99.90
45761;DHT22;31471;51.040;14.414;2022-08-19T07:14:24;20.70;99.90
45761;DHT22;31471;51.040;14.414;2022-08-19T07:16:51;20.70;99.90
45761;DHT22;31471;51.040;14.414;2022-08-19T07:19:18;20.80;99.90
45761;DHT22;31471;51.040;14.414;2022-08-19T07:21:44;20.70;99.90
45761;DHT22;31471;51.040;14.414;2022-08-19T07:24:09;20.80;99.90
45761;DHT22;31471;51.040;14.414;2022-08-19T07:26:41;20.80;99.90
45761;DHT22;31471;51.040;14.414;2022-08-19T07:29:07;20.70;99.90
45761;DHT22;31471;51.040;14.414;2022-08-19T07:31:32;20.70;99.90
45761;DHT22;31471;51.040;14.414;2022-08-19T07:34:06;20.70;99.90
45761;DHT22;31471;51.040;14.414;2022-08-19T07:36:34;20.80;99.90
45761;DHT22;31471;51.040;14.414;2022-08-19T07:39:08;20.80;99.90
45761;DHT22;31471;51.040;14.414;2022-08-19T07:41:35;21.00;99.90
45761;DHT22;31471;51.040;14.414;2022-08-19T07:44:03;20.90;99.90
45761;DHT22;31471;51.040;14.414;2022-08-19T07:46:34;21.00;99.90
45761;DHT22;31471;51.040;14.414;2022-08-19T07:49:00;20.90;99.90
45761;DHT22;31471;51.040;14.414;2022-08-19T07:51:26;20.80;99.90
45761;DHT22;31471;51.040;14.414;2022-08-19T07:53:52;20.80;99.90
45761;DHT22;31471;51.040;14.414;2022-08-19T07:56:19;20.80;99.90
45761;DHT22;31471;51.040;14.414;2022-08-19T07:58:47;20.90;99.90
45761;DHT22;31471;51.040;14.414;2022-08-19T08:01:17;20.70;99.90
45761;DHT22;31471;51.040;14.414;2022-08-19T08:03:45;20.80;99.90
45761;DHT22;31471;51.040;14.414;2022-08-19T08:06:30;21.00;99.90
45761;DHT22;31471;51.040;14.414;2022-08-19T08:09:17;21.00;99.90
45761;DHT22;31471;51.040;14.414;2022-08-19T08:11:57;21.00;99.90
45761;DHT22;31471;51.040;14.414;2022-08-19T08:14:25;21.00;99.90
45761;DHT22;31471;51.040;14.414;2022-08-19T08:16:51;21.10;99.90
45761;DHT22;31471;51.040;14.414;2022-08-19T08:19:17;21.30;99.90
45761;DHT22;31471;51.040;14.414;2022-08-19T08:21:43;21.10;99.90
45761;DHT22;31471;51.040;14.414;2022-08-19T08:24:09;21.00;99.90
45761;DHT22;31471;51.040;14.414;2022-08-19T08:26:35;21.00;99.90
45761;DHT22;31471;51.040;14.414;2022-08-19T08:29:01;21.00;99.90
45761;DHT22;31471;51.040;14.414;2022-08-19T08:31:27;20.90;99.90
45761;DHT22;31471;51.040;14.414;2022-08-19T08:33:53;21.00;99.90
45761;DHT22;31471;51.040;14.414;2022-08-19T08:36:19;21.00;99.90
45761;DHT22;31471;51.040;14.414;2022-08-19T08:38:44;21.00;99.90
45761;DHT22;31471;51.040;14.414;2022-08-19T08:41:35;21.20;99.90
45761;DHT22;31471;51.040;14.414;2022-08-19T08:44:04;21.20;99.90
45761;DHT22;31471;51.040;14.414;2022-08-19T08:46:43;21.30;99.90
45761;DHT22;31471;51.040;14.414;2022-08-19T08:49:20;21.40;99.90
45761;DHT22;31471;51.040;14.414;2022-08-19T08:52:13;21.50;99.90
45761;DHT22;31471;51.040;14.414;2022-08-19T08:54:43;21.50;99.90
45761;DHT22;31471;51.040;14.414;2022-08-19T08:57:35;21.50;99.90
45761;DHT22;31471;51.040;14.414;2022-08-19T09:00:04;21.50;99.90
45761;DHT22;31471;51.040;14.414;2022-08-19T09:02:31;21.60;99.90
45761;DHT22;31471;51.040;14.414;2022-08-19T09:04:57;21.60;99.90
45761;DHT22;31471;51.040;14.414;2022-08-19T09:07:46;21.60;99.90
45761;DHT22;31471;51.040;14.414;2022-08-19T09:10:44;21.60;99.90
45761;DHT22;31471;51.040;14.414;2022-08-19T09:13:21;21.50;99.90
45761;DHT22;31471;51.040;14.414;2022-08-19T09:18:56;21.80;99.90
45761;DHT22;31471;51.040;14.414;2022-08-19T09:21:24;21.70;99.90
45761;DHT22;31471;51.040;14.414;2022-08-19T09:23:51;21.60;99.90
45761;DHT22;31471;51.040;14.414;2022-08-19T09:26:19;21.60;99.90
45761;DHT22;31471;51.040;14.414;2022-08-19T09:28:47;21.70;99.90
45761;DHT22;31471;51.040;14.414;2022-08-19T09:31:22;21.60;99.90
45761;DHT22;31471;51.040;14.414;2022-08-19T09:33:48;21.60;99.90
45761;DHT22;31471;51.040;14.414;2022-08-19T09:36:16;21.40;99.90
45761;DHT22;31471;51.040;14.414;2022-08-19T09:38:44;21.30;99.90
45761;DHT22;31471;51.040;14.414;2022-08-19T09:41:13;21.30;99.90
45761;DHT22;31471;51.040;14.414;2022-08-19T09:43:39;21.40;99.90
45761;DHT22;31471;51.040;14.414;2022-08-19T09:46:06;21.40;99.90
45761;DHT22;31471;51.040;14.414;2022-08-19T09:48:33;21.40;99.90
45761;DHT22;31471;51.040;14.414;2022-08-19T09:51:07;21.50;99.90
45761;DHT22;31471;51.040;14.414;2022-08-19T09:53:34;21.60;99.90
45761;DHT22;31471;51.040;14.414;2022-08-19T09:56:01;21.60;99.90
45761;DHT22;31471;51.040;14.414;2022-08-19T09:58:27;21.50;99.90
45761;DHT22;31471;51.040;14.414;2022-08-19T10:00:54;21.40;99.90
45761;DHT22;31471;51.040;14.414;2022-08-19T10:03:20;21.50;99.90
45761;DHT22;31471;51.040;14.414;2022-08-19T10:05:45;21.50;99.90
45761;DHT22;31471;51.040;14.414;2022-08-19T10:08:16;21.50;99.90
45761;DHT22;31471;51.040;14.414;2022-08-19T10:10:42;21.60;99.90
45761;DHT22;31471;51.040;14.414;2022-08-19T10:13:09;21.70;99.90
45761;DHT22;31471;51.040;14.414;2022-08-19T10:15:35;21.90;99.90
45761;DHT22;31471;51.040;14.414;2022-08-19T10:18:00;22.20;99.90
45761;DHT22;31471;51.040;14.414;2022-08-19T10:20:26;22.20;99.90
45761;DHT22;31471;51.040;14.414;2022-08-19T10:22:52;22.20;99.90
45761;DHT22;31471;51.040;14.414;2022-08-19T10:25:17;22.30;99.90
45761;DHT22;31471;51.040;14.414;2022-08-19T10:27:43;22.20;99.90
45761;DHT22;31471;51.040;14.414;2022-08-19T10:30:09;22.20;99.90
45761;DHT22;31471;51.040;14.414;2022-08-19T10:32:35;22.30;99.90
45761;DHT22;31471;51.040;14.414;2022-08-19T10:35:01;22.30;99.90
45761;DHT22;31471;51.040;14.414;2022-08-19T10:37:27;22.10;99.90
45761;DHT22;31471;51.040;14.414;2022-08-19T10:39:53;22.30;99.90
45761;DHT22;31471;51.040;14.414;2022-08-19T10:42:19;22.10;99.90
45761;DHT22;31471;51.040;14.414;2022-08-19T10:44:44;22.20;99.90
45761;DHT22;31471;51.040;14.414;2022-08-19T10:47:12;22.30;99.90
45761;DHT22;31471;51.040;14.414;2022-08-19T10:49:37;22.40;99.90
45761;DHT22;31471;51.040;14.414;2022-08-19T10:52:23;22.40;99.90
45761;DHT22;31471;51.040;14.414;2022-08-19T10:55:05;22.50;99.90
45761;DHT22;31471;51.040;14.414;2022-08-19T10:57:50;22.50;99.90
45761;DHT22;31471;51.040;14.414;2022-08-19T11:00:16;22.50;99.90
45761;DHT22;31471;51.040;14.414;2022-08-19T11:02:42;22.50;99.90
45761;DHT22;31471;51.040;14.414;2022-08-19T11:05:09;22.50;99.90
45761;DHT22;31471;51.040;14.414;2022-08-19T11:07:39;22.60;99.90
45761;DHT22;31471;51.040;14.414;2022-08-19T11:10:06;22.70;99.90
45761;DHT22;31471;51.040;14.414;2022-08-19T11:12:32;22.80;99.90
45761;DHT22;31471;51.040;14.414;2022-08-19T11:14:58;22.70;99.90
45761;DHT22;31471;51.040;14.414;2022-08-19T11:17:24;22.80;99.90
45761;DHT22;31471;51.040;14.414;2022-08-19T11:19:49;23.00;99.90
45761;DHT22;31471;51.040;14.414;2022-08-19T11:22:15;22.90;99.90
45761;DHT22;31471;51.040;14.414;2022-08-19T11:24:42;22.90;99.90
45761;DHT22;31471;51.040;14.414;2022-08-19T11:27:09;22.90;99.90
45761;DHT22;31471;51.040;14.414;2022-08-19T11:29:37;22.90;99.90
45761;DHT22;31471;51.040;14.414;2022-08-19T11:32:08;23.10;99.90
45761;DHT22;31471;51.040;14.414;2022-08-19T11:34:35;23.30;99.90
45761;DHT22;31471;51.040;14.414;2022-08-19T11:37:01;23.40;99.90
45761;DHT22;31471;51.040;14.414;2022-08-19T11:39:30;23.60;99.90
45761;DHT22;31471;51.040;14.414;2022-08-19T11:41:58;23.70;99.90
45761;DHT22;31471;51.040;14.414;2022-08-19T11:44:24;23.90;99.90
45761;DHT22;31471;51.040;14.414;2022-08-19T11:46:49;23.60;99.90
45761;DHT22;31471;51.040;14.414;2022-08-19T11:49:17;23.60;99.90
45761;DHT22;31471;51.040;14.414;2022-08-19T11:51:44;23.80;99.90
45761;DHT22;31471;51.040;14.414;2022-08-19T11:54:11;24.00;99.90
45761;DHT22;31471;51.040;14.414;2022-08-19T11:56:39;24.10;99.90
45761;DHT22;31471;51.040;14.414;2022-08-19T11:59:05;23.90;99.90
45761;DHT22;31471;51.040;14.414;2022-08-19T12:01:30;23.70;99.90
45761;DHT22;31471;51.040;14.414;2022-08-19T12:03:57;23.90;99.90
45761;DHT22;31471;51.040;14.414;2022-08-19T12:06:29;23.80;99.90
45761;DHT22;31471;51.040;14.414;2022-08-19T12:08:56;23.80;99.90
45761;DHT22;31471;51.040;14.414;2022-08-19T12:11:23;23.90;99.90
45761;DHT22;31471;51.040;14.414;2022-08-19T12:13:48;23.90;99.90
45761;DHT22;31471;51.040;14.414;2022-08-19T12:16:17;23.90;99.90
45761;DHT22;31471;51.040;14.414;2022-08-19T12:18:44;24.00;99.90
45761;DHT22;31471;51.040;14.414;2022-08-19T12:21:12;24.10;99.90
45761;DHT22;31471;51.040;14.414;2022-08-19T12:23:39;24.00;99.90
45761;DHT22;31471;51.040;14.414;2022-08-19T12:26:05;24.10;99.90
45761;DHT22;31471;51.040;14.414;2022-08-19T12:28:30;24.10;99.90
45761;DHT22;31471;51.040;14.414;2022-08-19T12:30:56;24.20;99.90
45761;DHT22;31471;51.040;14.414;2022-08-19T12:33:23;24.20;99.90
45761;DHT22;31471;51.040;14.414;2022-08-19T12:35:51;24.10;99.90
45761;DHT22;31471;51.040;14.414;2022-08-19T12:38:17;24.10;99.90
45761;DHT22;31471;51.040;14.414;2022-08-19T12:40:46;24.30;99.90
45761;DHT22;31471;51.040;14.414;2022-08-19T12:43:12;24.30;99.90
45761;DHT22;31471;51.040;14.414;2022-08-19T12:45:39;24.30;99.90
45761;DHT22;31471;51.040;14.414;2022-08-19T12:48:05;24.50;99.90
45761;DHT22;31471;51.040;14.414;2022-08-19T12:50:30;24.70;99.90
45761;DHT22;31471;51.040;14.414;2022-08-19T12:52:57;24.30;99.90
45761;DHT22;31471;51.040;14.414;2022-08-19T12:55:23;24.30;99.90
45761;DHT22;31471;51.040;14.414;2022-08-19T12:57:49;24.30;99.90
45761;DHT22;31471;51.040;14.414;2022-08-19T13:00:18;24.50;99.90
45761;DHT22;31471;51.040;14.414;2022-08-19T13:02:48;24.70;99.90
45761;DHT22;31471;51.040;14.414;2022-08-19T13:05:20;24.80;99.90
45761;DHT22;31471;51.040;14.414;2022-08-19T13:07:47;25.00;99.90
45761;DHT22;31471;51.040;14.414;2022-08-19T13:10:16;24.90;99.90
45761;DHT22;31471;51.040;14.414;2022-08-19T13:12:43;24.90;99.90
45761;DHT22;31471;51.040;14.414;2022-08-19T13:15:10;24.90;99.90
45761;DHT22;31471;51.040;14.414;2022-08-19T13:17:36;24.70;99.90
45761;DHT22;31471;51.040;14.414;2022-08-19T13:20:03;24.80;99.90
45761;DHT22;31471;51.040;14.414;2022-08-19T13:22:30;24.90;99.90
45761;DHT22;31471;51.040;14.414;2022-08-19T13:24:56;25.00;99.90
45761;DHT22;31471;51.040;14.414;2022-08-19T13:27:22;24.90;99.90
45761;DHT22;31471;51.040;14.414;2022-08-19T13:29:47;25.00;99.90
45761;DHT22;31471;51.040;14.414;2022-08-19T13:32:31;25.20;99.90
45761;DHT22;31471;51.040;14.414;2022-08-19T13:35:16;25.20;99.90
45761;DHT22;31471;51.040;14.414;2022-08-19T13:37:42;25.00;99.90
45761;DHT22;31471;51.040;14.414;2022-08-19T13:40:11;24.90;99.90
45761;DHT22;31471;51.040;14.414;2022-08-19T13:42:38;24.90;99.90
45761;DHT22;31471;51.040;14.414;2022-08-19T13:45:05;25.00;99.90
45761;DHT22;31471;51.040;14.414;2022-08-19T13:47:32;24.90;99.90
45761;DHT22;31471;51.040;14.414;2022-08-19T13:50:00;25.00;99.90
45761;DHT22;31471;51.040;14.414;2022-08-19T13:52:25;24.90;99.90
45761;DHT22;31471;51.040;14.414;2022-08-19T13:54:51;24.70;99.90
45761;DHT22;31471;51.040;14.414;2022-08-19T13:57:16;24.50;99.90
45761;DHT22;31471;51.040;14.414;2022-08-19T13:59:42;24.60;99.90
45761;DHT22;31471;51.040;14.414;2022-08-19T14:02:07;24.60;99.90
45761;DHT22;31471;51.040;14.414;2022-08-19T14:04:33;24.30;99.90
45761;DHT22;31471;51.040;14.414;2022-08-19T14:06:59;24.30;99.90
45761;DHT22;31471;51.040;14.414;2022-08-19T14:09:24;24.40;99.90
45761;DHT22;31471;51.040;14.414;2022-08-19T14:11:50;24.40;99.90
45761;DHT22;31471;51.040;14.414;2022-08-19T14:14:16;24.70;99.90
45761;DHT22;31471;51.040;14.414;2022-08-19T14:16:42;24.50;99.90
45761;DHT22;31471;51.040;14.414;2022-08-19T14:19:08;24.80;99.90
45761;DHT22;31471;51.040;14.414;2022-08-19T14:21:33;24.90;99.90
45761;DHT22;31471;51.040;14.414;2022-08-19T14:23:59;24.80;99.90
45761;DHT22;31471;51.040;14.414;2022-08-19T14:26:25;24.90;99.90
45761;DHT22;31471;51.040;14.414;2022-08-19T14:28:51;25.00;99.90
45761;DHT22;31471;51.040;14.414;2022-08-19T14:31:18;25.10;99.90
45761;DHT22;31471;51.040;14.414;2022-08-19T14:33:47;25.00;99.90
45761;DHT22;31471;51.040;14.414;2022-08-19T14:36:14;25.10;99.90
45761;DHT22;31471;51.040;14.414;2022-08-19T14:38:39;25.00;99.90
45761;DHT22;31471;51.040;14.414;2022-08-19T14:41:15;24.90;99.90
45761;DHT22;31471;51.040;14.414;2022-08-19T14:43:42;24.90;99.90
45761;DHT22;31471;51.040;14.414;2022-08-19T14:46:10;25.00;99.90
45761;DHT22;31471;51.040;14.414;2022-08-19T14:48:37;24.90;99.90
45761;DHT22;31471;51.040;14.414;2022-08-19T14:51:05;25.10;99.90
45761;DHT22;31471;51.040;14.414;2022-08-19T14:53:31;24.90;99.90
45761;DHT22;31471;51.040;14.414;2022-08-19T14:55:59;25.00;99.90
45761;DHT22;31471;51.040;14.414;2022-08-19T14:58:25;25.00;99.90
45761;DHT22;31471;51.040;14.414;2022-08-19T15:00:50;25.00;99.90
45761;DHT22;31471;51.040;14.414;2022-08-19T15:03:16;24.80;99.90
45761;DHT22;31471;51.040;14.414;2022-08-19T15:05:42;24.70;99.90
45761;DHT22;31471;51.040;14.414;2022-08-19T15:08:07;24.70;99.90
45761;DHT22;31471;51.040;14.414;2022-08-19T15:10:33;24.60;99.90
45761;DHT22;31471;51.040;14.414;2022-08-19T15:12:58;24.60;99.90
45761;DHT22;31471;51.040;14.414;2022-08-19T15:15:25;24.40;99.90
45761;DHT22;31471;51.040;14.414;2022-08-19T15:17:50;24.50;99.90
45761;DHT22;31471;51.040;14.414;2022-08-19T15:20:19;24.60;99.90
45761;DHT22;31471;51.040;14.414;2022-08-19T15:22:45;24.70;99.90